Time;durP1;ratioP1;P1;durP2;ratioP2;P2;SDS_P1;SDS_P2;PMS_P1;PMS_P2;Temp;Humidity;BMP_temperature;BMP_pressure;BME280_temperature;BME280_humidity;BME280_pressure;Samples;Min_cycle;Max_cycle;Signal;HPM_P1;HPM_P2
2021/01/12 00:00:08;;;;;;;0.32;0.32;;;;;;;0.73;90.96;98187.09;5065492;28;20033;-71
2021/01/12 00:02:37;;;;;;;0.40;0.40;;;;;;;0.72;91.23;98188.78;5080461;28;20025;-69
2021/01/12 00:05:03;;;;;;;0.30;0.30;;;;;;;0.72;91.29;98200.69;5065523;28;20035;-69
2021/01/12 00:07:29;;;;;;;0.35;0.35;;;;;;;0.64;91.16;98207.56;5066688;28;20025;-69
2021/01/12 00:09:54;;;;;;;0.38;0.38;;;;;;;0.57;91.02;98205.03;5065591;28;20359;-69
2021/01/12 00:12:19;;;;;;;0.30;0.30;;;;;;;0.52;91.05;98213.53;5064876;28;20471;-68
2021/01/12 00:14:48;;;;;;;0.30;0.30;;;;;;;0.47;90.98;98208.44;5063719;28;20024;-69
2021/01/12 00:17:14;;;;;;;0.38;0.38;;;;;;;0.47;91.16;98221.22;5064767;28;20036;-71
2021/01/12 00:19:40;;;;;;;0.38;0.38;;;;;;;0.45;91.16;98218.66;5064769;28;20036;-69
2021/01/12 00:22:13;;;;;;;0.30;0.30;;;;;;;0.40;90.99;98212.72;5064859;28;20029;-69
2021/01/12 00:24:39;;;;;;;0.40;0.40;;;;;;;0.37;91.15;98222.94;5064844;28;20020;-69
2021/01/12 00:27:05;;;;;;;0.30;0.30;;;;;;;0.33;91.03;98223.81;5064576;28;20512;-69
2021/01/12 00:29:32;;;;;;;0.30;0.30;;;;;;;0.26;90.96;98222.13;5064634;28;20028;-69
2021/01/12 00:31:57;;;;;;;0.30;0.30;;;;;;;0.20;90.92;98230.63;5064254;28;20024;-68
2021/01/12 00:34:23;;;;;;;0.30;0.30;;;;;;;0.13;90.88;98231.50;5064471;28;20036;-69
2021/01/12 00:36:52;;;;;;;0.35;0.35;;;;;;;0.07;90.98;98232.34;5079698;28;20024;-68
2021/01/12 00:39:19;;;;;;;0.40;0.40;;;;;;;-0.04;90.86;98238.31;5064258;28;20408;-69
2021/01/12 00:41:55;;;;;;;0.40;0.40;;;;;;;-0.14;90.74;98239.16;5064430;28;20029;-69
2021/01/12 00:44:22;;;;;;;0.30;0.30;;;;;;;-0.26;90.51;98251.03;5063166;28;20295;-70
2021/01/12 00:46:49;;;;;;;0.40;0.40;;;;;;;-0.36;90.61;98257.00;5063955;28;20032;-70
2021/01/12 00:49:16;;;;;;;0.30;0.30;;;;;;;-0.43;90.68;98262.97;5079534;28;20039;-69
2021/01/12 00:51:42;;;;;;;0.30;0.30;;;;;;;-0.50;90.73;98257.81;5064154;28;20028;-69
2021/01/12 00:54:12;;;;;;;0.40;0.40;;;;;;;-0.56;90.62;98256.97;5064100;28;20107;-69
2021/01/12 00:56:37;;;;;;;0.40;0.40;;;;;;;-0.63;90.68;98266.31;5063993;28;20047;-70
2021/01/12 00:59:03;;;;;;;0.40;0.40;;;;;;;-0.67;90.64;98269.72;5064203;28;20069;-69
2021/01/12 01:01:29;;;;;;;0.40;0.40;;;;;;;-0.71;90.66;98271.38;5063671;28;20049;-70
2021/01/12 01:03:55;;;;;;;0.40;0.40;;;;;;;-0.76;90.75;98270.50;5063776;28;20080;-68
2021/01/12 01:06:21;;;;;;;0.40;0.40;;;;;;;-0.81;90.50;98277.28;5063834;28;20021;-69
2021/01/12 01:08:47;;;;;;;0.30;0.30;;;;;;;-0.83;90.46;98273.91;5063846;28;20426;-68
2021/01/12 01:11:12;;;;;;;0.40;0.40;;;;;;;-0.84;90.76;98275.59;5063802;28;20025;-67
2021/01/12 01:13:38;;;;;;;0.30;0.30;;;;;;;-0.82;90.84;98285.78;5063660;28;20024;-68
2021/01/12 01:16:03;;;;;;;0.40;0.40;;;;;;;-0.81;90.93;98292.56;5062092;28;20024;-70
2021/01/12 01:18:29;;;;;;;0.40;0.40;;;;;;;-0.80;90.86;98291.75;5063821;28;20017;-67
2021/01/12 01:20:54;;;;;;;0.30;0.30;;;;;;;-0.79;90.84;98289.19;5063634;28;20037;-68
2021/01/12 01:23:23;;;;;;;0.30;0.30;;;;;;;-0.75;91.02;98292.59;5078914;28;20017;-68
2021/01/12 01:25:50;;;;;;;0.40;0.40;;;;;;;-0.79;90.99;98284.09;5063529;28;20025;-68
2021/01/12 01:28:15;;;;;;;0.40;0.40;;;;;;;-0.74;91.19;98289.22;5078716;28;20398;-69
2021/01/12 01:30:41;;;;;;;0.40;0.40;;;;;;;-0.79;90.98;98286.66;5063045;28;20025;-69
2021/01/12 01:33:07;;;;;;;0.30;0.30;;;;;;;-0.81;90.84;98290.88;5061986;28;20024;-69
2021/01/12 01:35:32;;;;;;;0.40;0.40;;;;;;;-0.89;nan;98288.31;5063360;28;20021;-69
2021/01/12 01:37:58;;;;;;;0.30;0.30;;;;;;;-0.92;90.71;98292.53;5063441;28;20080;-70
2021/01/12 01:40:24;;;;;;;0.40;0.40;;;;;;;-0.89;91.11;98307.84;5062790;28;20095;-69
2021/01/12 01:42:50;;;;;;;0.40;0.40;;;;;;;-0.92;90.93;98310.38;5062710;28;20461;-68
2021/01/12 01:45:17;;;;;;;0.40;0.40;;;;;;;-0.96;91.01;98311.22;5063034;28;20029;-69
2021/01/12 01:47:43;;;;;;;0.40;0.40;;;;;;;-1.03;91.01;98305.22;5062686;28;20021;-69
2021/01/12 01:50:18;;;;;;;0.30;0.30;;;;;;;-1.06;90.81;98311.19;5063018;28;20025;-69
2021/01/12 01:52:52;;;;;;;0.40;0.40;;;;;;;-1.17;90.69;98300.94;5062559;28;20217;-70
2021/01/12 01:55:18;;;;;;;0.40;0.40;;;;;;;-1.16;90.63;98314.50;5062935;28;20055;-70
2021/01/12 01:57:44;;;;;;;0.30;0.30;;;;;;;-1.22;90.44;98306.84;5063084;28;20051;-69
2021/01/12 02:00:10;;;;;;;0.40;0.40;;;;;;;-1.22;90.64;98309.38;5062980;28;20025;-70
2021/01/12 02:02:53;;;;;;;0.40;0.40;;;;;;;-1.26;90.63;98311.91;5062227;28;20056;-70
2021/01/12 02:05:20;;;;;;;0.40;0.40;;;;;;;-1.45;90.76;98289.75;5063013;28;20036;-71
2021/01/12 02:07:46;;;;;;;0.32;0.32;;;;;;;-1.38;90.52;98312.72;5062959;28;20021;-70
2021/01/12 02:10:14;;;;;;;0.30;0.30;;;;;;;-1.39;90.57;98325.44;5061286;28;20114;-69
2021/01/12 02:12:53;;;;;;;0.40;0.40;;;;;;;-1.49;90.40;98314.31;5078034;28;20025;-69
2021/01/12 02:15:21;;;;;;;0.40;0.40;;;;;;;-1.46;90.40;98323.66;5062785;28;20021;-69
2021/01/12 02:17:49;;;;;;;0.40;0.40;;;;;;;-1.57;90.43;98308.31;5062460;28;20052;-68
2021/01/12 02:20:21;;;;;;;0.30;0.30;;;;;;;-1.61;90.43;98310.00;5062623;28;20021;-68
2021/01/12 02:23:01;;;;;;;0.40;0.40;;;;;;;-1.62;90.33;98318.47;5062612;28;20051;-68
2021/01/12 02:25:29;;;;;;;0.40;0.40;;;;;;;-1.68;90.52;98305.72;5062522;28;20051;-68
2021/01/12 02:27:54;;;;;;;0.30;0.30;;;;;;;-1.70;90.52;98304.84;5062652;28;20048;-68
2021/01/12 02:30:22;;;;;;;0.30;0.30;;;;;;;-1.63;90.49;98327.78;5062666;28;20343;-68
2021/01/12 02:32:48;;;;;;;0.30;0.30;;;;;;;-1.65;90.57;98321.00;5062019;28;20036;-68
2021/01/12 02:35:16;;;;;;;0.40;0.40;;;;;;;-1.69;90.58;98321.81;5077749;28;20025;-69
2021/01/12 02:37:44;;;;;;;0.32;0.32;;;;;;;-1.76;90.51;98319.22;5062872;28;20013;-69
2021/01/12 02:40:10;;;;;;;0.40;0.40;;;;;;;-1.75;90.38;98320.94;5066292;28;20432;-69
2021/01/12 02:42:35;;;;;;;0.30;0.30;;;;;;;-1.83;90.40;98312.38;5066441;28;20021;-68
2021/01/12 02:45:01;;;;;;;0.30;0.30;;;;;;;-1.75;90.55;98331.09;5064997;28;20374;-68
2021/01/12 02:47:26;;;;;;;0.40;0.40;;;;;;;-1.78;90.55;98326.00;5065580;28;20037;-70
2021/01/12 02:49:51;;;;;;;0.40;0.40;;;;;;;-1.92;90.28;98317.41;5081254;28;20470;-69
2021/01/12 02:52:17;;;;;;;0.40;0.40;;;;;;;-1.78;90.49;98345.50;5065912;28;20025;-68
2021/01/12 02:54:42;;;;;;;0.40;0.40;;;;;;;-1.85;90.42;98341.19;5065412;28;20041;-67
2021/01/12 02:57:08;;;;;;;0.40;0.40;;;;;;;-1.91;90.61;98336.91;5065941;28;20031;-67
2021/01/12 02:59:34;;;;;;;0.30;0.30;;;;;;;-1.87;90.40;98349.66;5065650;28;20446;-67
2021/01/12 03:01:59;;;;;;;0.40;0.40;;;;;;;-1.93;90.37;98343.69;5065482;28;20043;-67
2021/01/12 03:04:25;;;;;;;0.40;0.40;;;;;;;-1.95;90.39;98346.19;5065611;28;20024;-67
2021/01/12 03:06:50;;;;;;;0.40;0.40;;;;;;;-1.91;90.24;98359.78;5065536;28;20017;-67
2021/01/12 03:09:15;;;;;;;0.40;0.40;;;;;;;-2.02;90.29;98350.38;5065619;28;20033;-67
2021/01/12 03:11:41;;;;;;;0.35;0.35;;;;;;;-1.95;90.44;98358.91;5065744;28;20327;-68
2021/01/12 03:14:06;;;;;;;0.40;0.40;;;;;;;-2.07;90.32;98336.75;5065295;28;20051;-68
2021/01/12 03:16:34;;;;;;;0.30;0.30;;;;;;;-2.00;90.40;98353.78;5065099;28;20024;-67
2021/01/12 03:19:03;;;;;;;0.40;0.40;;;;;;;-1.93;90.47;98362.31;5065506;28;20035;-67
2021/01/12 03:21:28;;;;;;;0.40;0.40;;;;;;;-1.95;90.30;98360.59;5065188;28;20029;-67
2021/01/12 03:23:54;;;;;;;0.32;0.32;;;;;;;-1.93;90.47;98353.84;5064927;28;20106;-67
2021/01/12 03:26:20;;;;;;;0.38;0.38;;;;;;;-1.93;90.19;98369.13;5065515;28;20111;-68
2021/01/12 03:28:46;;;;;;;0.40;0.40;;;;;;;-1.98;90.18;98373.31;5064917;28;20021;-67
2021/01/12 03:31:11;;;;;;;0.40;0.40;;;;;;;-2.02;90.33;98363.09;5063446;28;20033;-67
2021/01/12 03:33:37;;;;;;;0.40;0.40;;;;;;;-2.02;90.23;98362.25;5065169;28;20017;-67
2021/01/12 03:36:02;;;;;;;0.40;0.40;;;;;;;-2.04;90.28;98364.75;5065471;28;20416;-67
2021/01/12 03:38:28;;;;;;;0.40;0.40;;;;;;;-1.98;90.36;98370.75;5063974;28;20055;-68
2021/01/12 03:40:54;;;;;;;0.30;0.30;;;;;;;-2.06;90.34;98361.34;5065112;28;20033;-68
2021/01/12 03:43:19;;;;;;;0.40;0.40;;;;;;;-2.04;90.35;98367.31;5065178;28;20028;-67
2021/01/12 03:45:44;;;;;;;0.30;0.30;;;;;;;-1.94;90.38;98375.03;5065023;28;20028;-67
2021/01/12 03:48:10;;;;;;;0.40;0.40;;;;;;;-1.97;90.26;98370.78;5064867;28;20027;-68
2021/01/12 03:50:35;;;;;;;0.40;0.40;;;;;;;-2.01;90.02;98369.88;5064812;28;20028;-67
2021/01/12 03:53:00;;;;;;;0.40;0.40;;;;;;;-2.04;90.09;98374.94;5064715;28;20131;-66
2021/01/12 03:55:26;;;;;;;0.40;0.40;;;;;;;-2.19;89.93;98362.06;5064638;28;20052;-66
2021/01/12 03:57:51;;;;;;;0.30;0.30;;;;;;;-2.13;89.92;98390.97;5064738;28;20017;-66
2021/01/12 04:00:17;;;;;;;0.40;0.40;;;;;;;-2.25;89.90;98373.88;5064794;28;20052;-66
2021/01/12 04:02:43;;;;;;;0.40;0.40;;;;;;;-2.27;89.91;98385.72;5064275;28;20032;-66
2021/01/12 04:05:09;;;;;;;0.30;0.30;;;;;;;-2.34;89.71;98383.94;5064761;28;20031;-66
2021/01/12 04:07:36;;;;;;;0.40;0.40;;;;;;;-2.30;89.70;98403.47;5064930;28;20017;-66
2021/01/12 04:10:01;;;;;;;0.40;0.40;;;;;;;-2.36;89.73;98398.31;5064739;28;20021;-66
2021/01/12 04:12:27;;;;;;;0.40;0.40;;;;;;;-2.32;89.82;98400.09;5063223;28;20104;-66
2021/01/12 04:14:52;;;;;;;0.40;0.40;;;;;;;-2.32;89.75;98407.72;5064382;28;20017;-66
2021/01/12 04:17:17;;;;;;;0.40;0.40;;;;;;;-2.30;89.92;98402.66;5079487;28;20032;-68
2021/01/12 04:19:43;;;;;;;0.40;0.40;;;;;;;-2.28;90.22;98404.34;5064238;28;20056;-67
2021/01/12 04:22:08;;;;;;;0.40;0.40;;;;;;;-2.23;90.08;98404.41;5064230;28;20051;-67
2021/01/12 04:24:33;;;;;;;0.35;0.35;;;;;;;-2.26;90.00;98402.69;5064138;28;20115;-67
2021/01/12 04:27:01;;;;;;;0.40;0.40;;;;;;;-2.33;89.89;98389.91;5064482;28;20039;-67
2021/01/12 04:29:26;;;;;;;0.40;0.40;;;;;;;-2.33;89.92;98398.34;5063895;28;20088;-67
2021/01/12 04:31:52;;;;;;;0.30;0.30;;;;;;;-2.32;89.80;98404.31;5063820;28;20031;-66
2021/01/12 04:34:17;;;;;;;0.40;0.40;;;;;;;-2.35;89.71;98405.13;5063964;28;20142;-68
2021/01/12 04:36:43;;;;;;;0.40;0.40;;;;;;;-2.32;89.81;98405.16;5063989;28;20021;-68
2021/01/12 04:39:08;;;;;;;0.40;0.40;;;;;;;-2.28;89.82;98413.66;5064026;28;20013;-67
2021/01/12 04:41:33;;;;;;;0.38;0.38;;;;;;;-2.29;89.80;98417.91;5063926;28;20045;-67
2021/01/12 04:43:59;;;;;;;0.40;0.40;;;;;;;-2.35;89.76;98405.13;5079106;28;20504;-68
2021/01/12 04:46:24;;;;;;;0.40;0.40;;;;;;;-2.25;89.74;98419.63;5063596;28;20017;-67
2021/01/12 04:48:50;;;;;;;0.40;0.40;;;;;;;-2.27;89.70;98413.69;5063613;28;20025;-67
2021/01/12 04:51:16;;;;;;;0.40;0.40;;;;;;;-2.27;89.64;98413.69;5062593;28;20025;-67
2021/01/12 04:53:46;;;;;;;0.40;0.40;;;;;;;-2.30;89.43;98416.19;5063726;28;20028;-67
2021/01/12 04:56:20;;;;;;;0.40;0.40;;;;;;;-2.35;89.54;98414.44;5079008;28;20044;-67
2021/01/12 04:58:48;;;;;;;0.30;0.30;;;;;;;-2.36;89.56;98416.13;5063819;28;20025;-67
2021/01/12 05:01:18;;;;;;;0.30;0.30;;;;;;;-2.40;89.44;98411.84;5062917;28;20029;-67
2021/01/12 05:03:45;;;;;;;0.40;0.40;;;;;;;-2.44;89.37;98410.09;5063597;28;20024;-68
2021/01/12 05:06:11;;;;;;;0.40;0.40;;;;;;;-2.52;89.31;98400.69;5063459;28;20043;-67
2021/01/12 05:08:45;;;;;;;0.40;0.40;;;;;;;-2.59;89.21;98393.84;5063716;28;20024;-67
2021/01/12 05:11:15;;;;;;;0.40;0.40;;;;;;;-2.56;89.28;98404.03;5078797;28;20020;-66
2021/01/12 05:13:44;;;;;;;0.40;0.40;;;;;;;-2.62;89.14;98399.72;5063448;28;20040;-67
2021/01/12 05:16:10;;;;;;;0.40;0.40;;;;;;;-2.71;88.99;98398.75;5063115;28;20104;-67
2021/01/12 05:18:41;;;;;;;0.40;0.40;;;;;;;-2.65;88.96;98411.56;5061876;28;20009;-68
2021/01/12 05:21:09;;;;;;;0.40;0.40;;;;;;;-2.76;88.73;98394.47;5063593;28;20032;-67
2021/01/12 05:23:47;;;;;;;0.40;0.40;;;;;;;-2.74;88.68;98400.44;5063101;28;20514;-66
2021/01/12 05:26:16;;;;;;;0.40;0.40;;;;;;;-2.76;88.64;98407.16;5063287;28;20060;-66
2021/01/12 05:28:41;;;;;;;0.40;0.40;;;;;;;-2.79;88.64;98402.06;5063435;28;20025;-68
2021/01/12 05:31:11;;;;;;;0.40;0.40;;;;;;;-2.86;88.49;98400.28;5078266;28;20020;-68
2021/01/12 05:33:39;;;;;;;0.40;0.40;;;;;;;-2.84;88.60;98408.75;5063232;28;20029;-69
2021/01/12 05:36:05;;;;;;;0.50;0.50;;;;;;;-2.90;88.40;98403.59;5062997;28;20025;-67
2021/01/12 05:38:32;;;;;;;0.40;0.40;;;;;;;-2.86;88.29;98415.50;5062986;28;20024;-67
2021/01/12 05:41:00;;;;;;;0.40;0.40;;;;;;;-2.91;88.31;98417.13;5062024;28;20017;-68
2021/01/12 05:43:36;;;;;;;0.40;0.40;;;;;;;-2.92;88.48;98415.41;5062042;28;20051;-67
2021/01/12 05:46:15;;;;;;;0.40;0.40;;;;;;;-2.97;88.24;98409.44;5062909;28;20264;-66
2021/01/12 05:48:45;;;;;;;0.40;0.40;;;;;;;-2.99;88.22;98412.78;5063348;28;20021;-67
2021/01/12 05:51:13;;;;;;;0.40;0.40;;;;;;;-3.05;88.15;98415.22;5063258;28;20039;-68
2021/01/12 05:53:45;;;;;;;0.40;0.40;;;;;;;-3.01;88.11;98416.13;5061595;28;20033;-67
2021/01/12 05:56:22;;;;;;;0.50;0.50;;;;;;;-3.03;88.02;98416.13;5062966;28;20072;-68
2021/01/12 05:58:51;;;;;;;0.40;0.40;;;;;;;-3.05;88.05;98414.41;5063040;28;20059;-68
2021/01/12 06:01:49;;;;;;;0.40;0.40;;;;;;;-3.04;88.19;98406.81;5062669;28;20108;-68
2021/01/12 06:04:15;;;;;;;0.40;0.40;;;;;;;-3.10;88.05;98391.50;5062948;28;20029;-68
2021/01/12 06:06:42;;;;;;;0.30;0.30;;;;;;;-3.02;88.08;98410.19;5063400;28;20080;-68
2021/01/12 06:09:10;;;;;;;0.40;0.40;;;;;;;-3.04;88.09;98409.34;5078271;28;20458;-68
2021/01/12 06:11:37;;;;;;;0.40;0.40;;;;;;;-2.99;88.13;98424.66;5062970;28;20044;-68
2021/01/12 06:14:12;;;;;;;0.40;0.40;;;;;;;-3.00;88.12;98423.78;5065551;28;20409;-69
2021/01/12 06:16:43;;;;;;;0.50;0.50;;;;;;;-3.01;87.98;98424.63;5066426;28;20059;-70
2021/01/12 06:19:17;;;;;;;0.40;0.40;;;;;;;-3.03;88.11;98420.34;5066912;28;20025;-67
2021/01/12 06:21:55;;;;;;;0.40;0.40;;;;;;;-3.05;88.01;98427.09;5082233;28;20029;-67
2021/01/12 06:24:42;;;;;;;0.40;0.40;;;;;;;-3.10;87.84;98414.34;5066801;28;20133;-67
2021/01/12 06:27:13;;;;;;;0.40;0.40;;;;;;;-3.22;87.97;98401.44;5066536;28;20596;-67
2021/01/12 06:29:42;;;;;;;0.50;0.50;;;;;;;-3.15;88.03;98414.28;5066701;28;20029;-67
2021/01/12 06:32:07;;;;;;;0.40;0.40;;;;;;;-3.14;88.25;98413.44;5066101;28;20029;-68
2021/01/12 06:34:33;;;;;;;0.40;0.40;;;;;;;-3.21;88.21;98409.06;5065306;28;20025;-66
2021/01/12 06:37:02;;;;;;;0.40;0.40;;;;;;;-3.14;88.15;98418.50;5066497;28;20033;-67
2021/01/12 06:39:50;;;;;;;0.40;0.40;;;;;;;-3.12;88.17;98427.00;5066304;28;20021;-67
2021/01/12 06:42:20;;;;;;;0.30;0.30;;;;;;;-3.17;88.30;98409.97;5066462;28;20468;-67
2021/01/12 06:44:48;;;;;;;0.40;0.40;;;;;;;-3.09;88.13;98421.13;5066354;28;20043;-66
2021/01/12 06:47:13;;;;;;;0.40;0.40;;;;;;;-3.08;88.21;98420.28;5081151;28;20035;-67
2021/01/12 06:49:39;;;;;;;0.40;0.40;;;;;;;-3.07;88.15;98424.53;5066362;28;20040;-66
2021/01/12 06:52:06;;;;;;;0.40;0.40;;;;;;;-3.06;88.12;98422.81;5066216;28;20031;-66
2021/01/12 06:54:46;;;;;;;0.40;0.40;;;;;;;-3.06;88.30;98421.16;5081043;28;20045;-67
2021/01/12 06:57:21;;;;;;;0.40;0.40;;;;;;;-3.15;88.13;98410.88;5066210;28;20025;-66
2021/01/12 06:59:52;;;;;;;0.40;0.40;;;;;;;-3.24;88.13;98402.28;5066190;28;20029;-66
2021/01/12 07:02:23;;;;;;;0.50;0.50;;;;;;;-3.08;88.13;98420.28;5065533;28;20437;-67
2021/01/12 07:05:09;;;;;;;0.40;0.40;;;;;;;-3.06;88.24;98423.69;5065892;28;20032;-66
2021/01/12 07:07:47;;;;;;;0.40;0.40;;;;;;;-3.06;88.27;98421.16;5066199;28;20033;-66
2021/01/12 07:10:30;;;;;;;0.40;0.40;;;;;;;-3.02;88.20;98419.53;5066075;28;20025;-66
2021/01/12 07:12:56;;;;;;;0.40;0.40;;;;;;;-3.03;88.28;98407.63;5066099;28;20025;-67
2021/01/12 07:15:23;;;;;;;0.40;0.40;;;;;;;-3.03;88.33;98408.50;5065692;28;20056;-67
2021/01/12 07:17:50;;;;;;;0.40;0.40;;;;;;;-2.95;88.14;98415.38;5064035;28;20032;-67
2021/01/12 07:20:19;;;;;;;0.35;0.35;;;;;;;-2.97;88.18;98419.59;5065741;28;20057;-67
2021/01/12 07:22:55;;;;;;;0.40;0.40;;;;;;;-3.01;88.12;98411.06;5065569;28;20431;-67
2021/01/12 07:25:27;;;;;;;0.40;0.40;;;;;;;-3.06;87.90;98413.53;5065306;28;20021;-67
2021/01/12 07:28:14;;;;;;;0.50;0.50;;;;;;;-3.08;87.90;98420.28;5065615;28;20025;-67
2021/01/12 07:30:41;;;;;;;0.40;0.40;;;;;;;-3.16;87.80;98411.69;5065452;28;20021;-67
2021/01/12 07:33:09;;;;;;;0.40;0.40;;;;;;;-3.25;87.64;98403.13;5064973;28;20052;-66
2021/01/12 07:35:36;;;;;;;0.40;0.40;;;;;;;-3.19;87.54;98421.78;5064163;28;20021;-67
2021/01/12 07:38:03;;;;;;;0.40;0.40;;;;;;;-3.22;87.33;98426.81;5065593;28;20021;-67
2021/01/12 07:40:29;;;;;;;0.47;0.47;;;;;;;-3.24;87.40;98422.59;5065298;28;20029;-67
2021/01/12 07:42:56;;;;;;;0.40;0.40;;;;;;;-3.25;87.46;98428.50;5065754;28;20036;-67
2021/01/12 07:45:24;;;;;;;0.40;0.40;;;;;;;-3.25;87.44;98420.88;5064902;28;20438;-66
2021/01/12 07:47:52;;;;;;;0.40;0.40;;;;;;;-3.21;87.43;98409.06;5064742;28;20124;-67
2021/01/12 07:50:19;;;;;;;0.40;0.40;;;;;;;-3.16;87.67;98412.53;5065304;28;20054;-67
2021/01/12 07:52:44;;;;;;;0.40;0.40;;;;;;;-3.11;87.62;98407.53;5065420;28;20040;-67
2021/01/12 07:55:10;;;;;;;0.40;0.40;;;;;;;-3.13;87.82;98394.81;5064936;28;20045;-66
2021/01/12 07:57:36;;;;;;;0.40;0.40;;;;;;;-2.97;87.90;98402.66;5065286;28;20017;-67
2021/01/12 08:00:05;;;;;;;0.40;0.40;;;;;;;-2.89;88.10;98397.69;5065544;28;20044;-67
2021/01/12 08:02:31;;;;;;;0.40;0.40;;;;;;;-2.86;88.04;98401.13;5065209;28;20090;-68
2021/01/12 08:04:56;;;;;;;0.40;0.40;;;;;;;-2.82;88.00;98409.63;5065109;28;20028;-66
2021/01/12 08:07:23;;;;;;;0.50;0.50;;;;;;;-2.76;88.00;98412.25;5065153;28;20381;-66
2021/01/12 08:09:56;;;;;;;0.40;0.40;;;;;;;-2.76;88.12;98396.16;5063584;28;20135;-67
2021/01/12 08:12:22;;;;;;;0.40;0.40;;;;;;;-2.65;88.13;98404.75;5064760;28;20031;-66
2021/01/12 08:14:48;;;;;;;0.40;0.40;;;;;;;-2.50;88.45;98400.72;5064660;28;20033;-67
2021/01/12 08:17:20;;;;;;;0.40;0.40;;;;;;;-2.20;88.62;98401.03;5065242;28;20048;-67
2021/01/12 08:19:46;;;;;;;0.40;0.40;;;;;;;-1.79;88.75;98408.22;5065066;28;20148;-67
2021/01/12 08:22:16;;;;;;;0.40;0.40;;;;;;;-1.48;88.55;98384.75;5064498;28;20654;-67
2021/01/12 08:24:43;;;;;;;0.40;0.40;;;;;;;-1.21;87.93;98407.84;5064276;28;20021;-67
2021/01/12 08:27:09;;;;;;;0.40;0.40;;;;;;;-1.17;87.53;98407.03;5064430;28;20078;-67
2021/01/12 08:29:34;;;;;;;0.40;0.40;;;;;;;-1.15;87.33;98390.06;5062773;28;20020;-67
2021/01/12 08:32:06;;;;;;;0.30;0.30;;;;;;;-1.11;86.83;98394.34;5062566;28;20075;-67
2021/01/12 08:34:54;;;;;;;0.40;0.40;;;;;;;-1.13;86.71;98393.47;5063925;28;20020;-66
2021/01/12 08:37:20;;;;;;;0.40;0.40;;;;;;;-1.17;86.81;98387.53;5062815;28;20067;-68
2021/01/12 08:39:47;;;;;;;0.40;0.40;;;;;;;-1.13;87.04;98380.72;5078522;28;20031;-67
2021/01/12 08:42:17;;;;;;;0.40;0.40;;;;;;;-1.08;87.27;98371.44;5079428;28;20482;-67
2021/01/12 08:44:43;;;;;;;0.40;0.40;;;;;;;-0.78;87.19;98385.19;5064122;28;20029;-67
2021/01/12 08:47:09;;;;;;;0.40;0.40;;;;;;;-0.60;87.18;98378.47;5063780;28;20028;-68
2021/01/12 08:49:35;;;;;;;0.35;0.35;;;;;;;-0.44;86.75;98363.22;5064151;28;20043;-68
2021/01/12 08:52:03;;;;;;;0.30;0.30;;;;;;;-0.32;86.56;98378.53;5063926;28;20080;-67
2021/01/12 08:54:29;;;;;;;0.30;0.30;;;;;;;-0.38;86.50;98375.97;5063396;28;20159;-69
2021/01/12 08:57:03;;;;;;;1.20;1.20;;;;;;;-0.29;86.68;98385.38;5063801;28;20060;-67
2021/01/12 08:59:33;;;;;;;0.40;0.40;;;;;;;-0.04;86.94;98396.50;5063734;28;20094;-70
2021/01/12 09:02:00;;;;;;;0.40;0.40;;;;;;;0.45;86.49;98387.16;5078733;28;20508;-71
2021/01/12 09:04:29;;;;;;;0.30;0.30;;;;;;;1.08;85.68;98389.66;5063351;28;20040;-70
2021/01/12 09:07:05;;;;;;;0.30;0.30;;;;;;;1.61;84.56;98382.63;5063703;28;20025;-70
2021/01/12 09:09:31;;;;;;;0.40;0.40;;;;;;;2.23;83.42;98393.38;5063579;28;20063;-70
2021/01/12 09:11:59;;;;;;;0.30;0.30;;;;;;;2.73;83.00;98396.41;5063801;28;20025;-70
2021/01/12 09:14:28;;;;;;;0.30;0.30;;;;;;;2.97;81.79;98361.13;5078870;28;20025;-69
2021/01/12 09:16:58;;;;;;;0.30;0.30;;;;;;;3.60;81.72;98388.66;5063384;28;20032;-69
2021/01/12 09:19:24;;;;;;;0.30;0.30;;;;;;;4.03;81.09;98378.66;5063669;28;20026;-70
2021/01/12 09:21:49;;;;;;;0.30;0.30;;;;;;;4.44;79.97;98392.59;5063616;28;20020;-69
2021/01/12 09:24:16;;;;;;;0.30;0.30;;;;;;;4.55;78.88;98396.75;5078613;28;20628;-69
2021/01/12 09:26:42;;;;;;;0.30;0.30;;;;;;;4.26;77.83;98405.75;5062130;28;20036;-70
2021/01/12 09:29:09;;;;;;;0.40;0.40;;;;;;;3.59;77.88;98397.22;5062127;28;20028;-74
2021/01/12 09:31:42;;;;;;;0.30;0.30;;;;;;;2.95;79.12;98403.06;5062906;28;20329;-75
2021/01/12 09:34:07;;;;;;;0.40;0.40;;;;;;;2.57;80.74;98399.97;5063458;28;20111;-75
2021/01/12 09:36:33;;;;;;;0.40;0.40;;;;;;;2.27;81.55;98391.66;5063320;28;20055;-75
2021/01/12 09:38:59;;;;;;;0.40;0.40;;;;;;;2.05;82.12;98384.09;5062912;28;20071;-76
2021/01/12 09:41:27;;;;;;;0.30;0.30;;;;;;;2.26;83.35;98400.19;5062479;28;20082;-76
2021/01/12 09:43:53;;;;;;;0.30;0.30;;;;;;;2.53;84.00;98377.78;5063152;28;20028;-74
2021/01/12 09:46:20;;;;;;;0.30;0.30;;;;;;;2.71;83.51;98393.03;5062887;28;20037;-74
2021/01/12 09:48:46;;;;;;;0.30;0.30;;;;;;;2.58;83.21;98391.41;5083001;28;20025;-76
2021/01/12 09:51:13;;;;;;;0.40;0.40;;;;;;;2.14;83.24;98371.25;5082919;28;20044;-76
2021/01/12 09:53:46;;;;;;;0.35;0.35;;;;;;;1.97;83.64;98367.09;5067518;28;20025;-76
2021/01/12 09:56:15;;;;;;;0.40;0.40;;;;;;;1.91;84.05;98395.28;5066157;28;20083;-74
2021/01/12 09:58:42;;;;;;;0.43;0.43;;;;;;;1.94;84.98;98384.19;5066167;28;20013;-72
2021/01/12 10:01:07;;;;;;;0.30;0.30;;;;;;;1.97;84.72;98379.91;5067122;28;20028;-71
2021/01/12 10:03:32;;;;;;;0.40;0.40;;;;;;;2.01;85.39;98377.31;5067169;28;20017;-70
2021/01/12 10:05:58;;;;;;;0.30;0.30;;;;;;;2.22;85.36;98381.47;5082553;28;20021;-70
2021/01/12 10:08:25;;;;;;;0.30;0.30;;;;;;;2.84;85.57;98387.78;5066128;28;20092;-70
2021/01/12 10:10:55;;;;;;;0.30;0.30;;;;;;;3.81;84.42;98381.53;5066856;28;20507;-70
2021/01/12 10:13:21;;;;;;;0.30;0.30;;;;;;;4.55;82.45;98373.59;5067027;28;20071;-70
2021/01/12 10:15:47;;;;;;;0.30;0.30;;;;;;;5.23;81.13;98379.25;5066223;28;20032;-71
2021/01/12 10:18:13;;;;;;;0.30;0.30;;;;;;;5.76;79.91;98378.19;5066113;28;20017;-72
2021/01/12 10:20:41;;;;;;;0.30;0.30;;;;;;;6.08;78.73;98378.41;5067020;28;20028;-72
2021/01/12 10:23:07;;;;;;;0.30;0.30;;;;;;;6.39;78.02;98367.34;5066855;28;20084;-70
2021/01/12 10:25:32;;;;;;;0.30;0.30;;;;;;;6.59;77.55;98376.34;5066759;28;20037;-69
2021/01/12 10:27:58;;;;;;;0.30;0.30;;;;;;;6.73;77.03;98376.00;5066616;28;20029;-70
2021/01/12 10:30:24;;;;;;;0.30;0.30;;;;;;;6.83;77.32;98350.81;5066025;28;20029;-70
2021/01/12 10:32:49;;;;;;;0.30;0.30;;;;;;;6.79;77.12;98367.22;5065211;28;20024;-69
2021/01/12 10:35:15;;;;;;;0.30;0.30;;;;;;;6.61;77.55;98369.41;5064399;28;20028;-69
2021/01/12 10:37:43;;;;;;;0.28;0.28;;;;;;;6.39;78.28;98376.84;5065763;28;20048;-70
2021/01/12 10:40:09;;;;;;;0.30;0.30;;;;;;;6.08;78.73;98375.81;5066047;28;20074;-71
2021/01/12 10:42:38;;;;;;;0.30;0.30;;;;;;;5.69;79.14;98374.03;5065859;28;20028;-70
2021/01/12 10:45:04;;;;;;;0.30;0.30;;;;;;;5.61;80.89;98374.22;5065390;28;20473;-70
2021/01/12 10:47:32;;;;;;;0.30;0.30;;;;;;;5.48;80.80;98365.06;5080311;28;20312;-70
2021/01/12 10:49:58;;;;;;;0.30;0.30;;;;;;;5.21;81.32;98361.28;5065631;28;20539;-70
2021/01/12 10:52:23;;;;;;;0.30;0.30;;;;;;;4.99;82.20;98362.56;5065882;28;20029;-70
2021/01/12 10:54:49;;;;;;;0.30;0.30;;;;;;;4.82;83.12;98353.44;5066002;28;20041;-70
2021/01/12 10:57:14;;;;;;;0.30;0.30;;;;;;;4.72;83.67;98355.31;5066300;28;20029;-69
2021/01/12 10:59:40;;;;;;;0.30;0.30;;;;;;;4.60;84.51;98356.38;5065552;28;20034;-70
2021/01/12 11:02:06;;;;;;;0.30;0.30;;;;;;;4.47;84.91;98346.28;5065870;28;20029;-69
2021/01/12 11:04:32;;;;;;;0.32;0.32;;;;;;;4.33;85.25;98343.97;5066030;28;20104;-71
2021/01/12 11:06:58;;;;;;;0.30;0.30;;;;;;;4.28;85.31;98352.63;5066217;28;20035;-71
2021/01/12 11:09:26;;;;;;;0.30;0.30;;;;;;;4.22;85.82;98348.41;5066260;28;20025;-71
2021/01/12 11:11:57;;;;;;;0.30;0.30;;;;;;;4.16;85.94;98362.22;5066101;28;20025;-71
2021/01/12 11:14:22;;;;;;;0.30;0.30;;;;;;;3.93;85.78;98363.41;5064408;28;20077;-71
2021/01/12 11:16:48;;;;;;;0.30;0.30;;;;;;;3.41;85.59;98309.34;5065472;28;20103;-66
2021/01/12 11:19:15;;;;;;;0.30;0.30;;;;;;;3.58;86.34;98341.63;5065823;28;20074;-65
2021/01/12 11:21:45;;;;;;;0.40;0.40;;;;;;;3.54;86.69;98338.28;5065538;28;20077;-65
2021/01/12 11:24:13;;;;;;;0.30;0.30;;;;;;;3.76;86.87;98349.94;5065663;28;20013;-64
2021/01/12 11:26:39;;;;;;;0.40;0.40;;;;;;;4.40;85.02;98339.59;5065728;28;20031;-64
2021/01/12 11:29:04;;;;;;;0.40;0.40;;;;;;;5.06;81.85;98328.13;5065511;28;20116;-64
2021/01/12 11:31:30;;;;;;;0.30;0.30;;;;;;;5.74;79.83;98340.47;5065234;28;20025;-65
2021/01/12 11:33:55;;;;;;;0.40;0.40;;;;;;;6.22;77.78;98336.84;5064463;28;20116;-64
2021/01/12 11:36:21;;;;;;;0.30;0.30;;;;;;;6.54;76.41;98340.38;5065423;28;20048;-65
2021/01/12 11:38:47;;;;;;;0.30;0.30;;;;;;;6.30;76.48;98344.38;5065453;28;20040;-65